LXGB/GIB METAR and TAF weather

Enter ICAO airport designator
Station Type Date Time Source
LXGB METAR 2021/03/08 02:50 UTC NOAA

LXGB 080250Z AUTO 29009KT 9999 SCT090/// 14/12 Q1015


Station Type Date Time Source
LXGB Decoded METAR 2021/03/08 02:50 UTC NOAA

Gibraltar, Gibraltar (LXGB) 36-09N 005-21W 0M
Mar 07, 2021 - 09:50 PM EST / 2021.03.08 0250 UTC
Wind: from the WNW (290 degrees) at 10 MPH (9 KT):0
Visibility: greater than 7 mile(s):0
Sky conditions: partly cloudy
Temperature: 57 F (14 C)
Dew Point: 53 F (12 C)
Relative Humidity: 87%
Pressure (altimeter): 29.97 in. Hg (1015 hPa)
ob: LXGB 080250Z AUTO 29009KT 9999 SCT090/// 14/12 Q1015
cycle: 3

Station Type Date Time Source
LXGB TAF 2020/12/29 18:09 UTC NOAA

TAF TAF LXGB 290602Z 2818/2923 CNL

Example: see airport list